Time;durP1;ratioP1;P1;durP2;ratioP2;P2;SDS_P1;SDS_P2;PMS_P1;PMS_P2;Temp;Humidity;BMP_temperature;BMP_pressure;BME280_temperature;BME280_humidity;BME280_pressure;Samples;Min_cycle;Max_cycle;Signal;HPM_P1;HPM_P2
2021/12/16 00:09:30;;;;;;;;;37.00;33.00;;;;;10.63;70.00;102903.28;5073475;28;45563;-58
2021/12/16 00:33:18;;;;;;;;;30.75;30.75;;;;;10.73;69.86;102900.44;5075608;28;45618;-57
2021/12/16 00:35:48;;;;;;;;;37.25;30.00;;;;;10.74;69.87;102896.88;5055518;28;46354;-56
2021/12/16 00:38:14;;;;;;;;;39.50;36.50;;;;;10.75;70.39;102904.81;5064971;28;45405;-56
2021/12/16 00:40:42;;;;;;;;;31.25;26.75;;;;;10.78;69.75;102899.41;5077208;28;45704;-57
2021/12/16 00:43:17;;;;;;;;;26.50;26.25;;;;;10.77;69.52;102902.13;5076445;28;45571;-60
2021/12/16 00:46:10;;;;;;;;;35.50;29.75;;;;;10.81;69.86;102903.84;5074618;28;45505;-59
2021/12/16 00:54:09;;;;;;;;;31.50;31.50;;;;;10.81;69.49;102906.50;5077973;28;45241;-59
2021/12/16 00:56:36;;;;;;;;;26.75;23.25;;;;;10.76;69.52;102885.28;5074787;28;46220;-57
2021/12/16 00:59:04;;;;;;;;;33.00;27.75;;;;;10.83;69.53;102894.03;5076526;28;45434;-54
2021/12/16 01:04:12;;;;;;;;;31.00;27.50;;;;;10.83;68.80;102892.25;5060290;28;45552;-56
2021/12/16 01:06:54;;;;;;;;;27.75;27.75;;;;;10.84;68.99;102898.44;5076371;28;46287;-58
2021/12/16 01:36:52;;;;;;;;;46.75;40.00;;;;;11.00;68.74;102894.53;5089246;27;45458;-58
2021/12/16 01:40:01;;;;;;;;;65.25;50.25;;;;;11.01;68.65;102900.75;5081668;27;45446;-58
2021/12/16 01:42:30;;;;;;;;;60.00;48.50;;;;;10.92;69.18;102875.19;5075402;27;45499;-57
2021/12/16 01:47:53;;;;;;;;;28.75;26.25;;;;;11.03;68.60;102894.47;5076613;28;45242;-61
2021/12/16 01:50:32;;;;;;;;;36.00;26.75;;;;;11.07;67.99;102905.97;5077183;28;45312;-56
2021/12/16 01:55:48;;;;;;;;;20.00;20.00;;;;;11.02;67.81;102903.38;5073981;28;45402;-59
2021/12/16 01:58:19;;;;;;;;;26.50;22.50;;;;;11.03;67.63;102910.44;5074614;28;45328;-60
2021/12/16 02:00:57;;;;;;;;;16.00;16.00;;;;;11.01;67.21;102909.59;5076449;28;45342;-58
2021/12/16 02:03:37;;;;;;;;;23.50;20.25;;;;;11.03;67.79;102918.44;5058435;28;45504;-60
2021/12/16 02:06:25;;;;;;;;;28.75;22.75;;;;;11.04;67.59;102912.19;5076984;28;45532;-57
2021/12/16 02:08:54;;;;;;;;;29.00;28.00;;;;;11.05;67.63;102919.28;5069932;28;45685;-59
2021/12/16 02:11:45;;;;;;;;;26.50;21.25;;;;;11.08;67.40;102918.38;5076883;28;45552;-58
2021/12/16 02:36:24;;;;;;;;;44.25;37.00;;;;;10.72;70.55;102914.66;5076043;28;45387;-58
2021/12/16 02:38:31;;;;;;;;;45.00;38.25;;;;;10.74;70.70;102923.47;5065294;27;45655;-56
2021/12/16 02:40:58;;;;;;;;;50.50;36.75;;;;;10.64;70.80;102921.00;5075910;28;45540;-59
2021/12/16 02:48:39;;;;;;;;;52.50;40.25;;;;;10.52;72.01;102918.56;5075713;28;45382;-58
2021/12/16 02:51:10;;;;;;;;;45.00;39.75;;;;;10.48;71.53;102908.91;5076429;28;45435;-55
2021/12/16 02:53:47;;;;;;;;;39.50;35.00;;;;;10.51;72.28;102923.91;5075739;28;46671;-56
2021/12/16 02:56:14;;;;;;;;;53.50;41.50;;;;;10.51;72.30;102921.25;5074929;27;45406;-58
2021/12/16 02:58:43;;;;;;;;;50.75;42.75;;;;;10.56;71.73;102920.28;5075766;28;45356;-58
2021/12/16 03:01:28;;;;;;;;;44.25;40.50;;;;;10.61;71.08;102928.16;5077093;27;45370;-56
2021/12/16 03:03:55;;;;;;;;;49.50;40.00;;;;;10.59;71.22;102914.88;5056712;28;47121;-57
2021/12/16 03:06:21;;;;;;;;;46.25;40.50;;;;;10.56;71.93;102922.06;5069041;28;45350;-55
2021/12/16 03:08:48;;;;;;;;;43.50;37.25;;;;;10.54;71.10;102921.19;5074446;28;45604;-58
2021/12/16 03:16:51;;;;;;;;;50.75;38.75;;;;;10.56;71.31;102914.97;5075457;28;45258;-56
2021/12/16 03:19:29;;;;;;;;;54.00;41.25;;;;;10.61;70.92;102928.16;5053782;28;45361;-58
2021/12/16 03:21:58;;;;;;;;;49.75;40.75;;;;;10.64;71.25;102928.09;5068317;28;45584;-58
2021/12/16 03:37:50;;;;;;;;;49.25;41.00;;;;;10.62;71.18;102927.25;5072893;28;45512;-57
2021/12/16 03:40:16;;;;;;;;;51.00;43.50;;;;;10.62;71.08;102920.16;5081143;27;45519;-55
2021/12/16 03:42:54;;;;;;;;;43.25;39.00;;;;;10.61;71.53;102930.81;5056474;28;45624;-57
2021/12/16 03:48:27;;;;;;;;;52.00;40.00;;;;;10.63;71.37;102926.34;5074611;28;45516;-56
2021/12/16 03:50:54;;;;;;;;;46.75;41.00;;;;;10.60;71.28;102929.94;5056949;28;45498;-55
2021/12/16 03:53:19;;;;;;;;;45.00;41.50;;;;;10.62;71.67;102930.78;5077804;28;45418;-58
2021/12/16 03:55:47;;;;;;;;;44.25;37.75;;;;;10.63;71.52;102921.03;5078163;28;46063;-57
2021/12/16 03:58:14;;;;;;;;;50.00;40.75;;;;;10.60;72.00;102921.97;5061645;28;45414;-55
2021/12/16 04:00:47;;;;;;;;;40.25;38.25;;;;;10.63;71.67;102926.34;5078003;28;45429;-56
2021/12/16 04:03:14;;;;;;;;;44.75;40.75;;;;;10.55;71.62;102917.66;5076213;27;45190;-58
2021/12/16 04:05:41;;;;;;;;;54.50;43.25;;;;;10.49;70.99;102918.63;5079192;27;45422;-58
2021/12/16 04:08:07;;;;;;;;;44.25;39.75;;;;;10.43;72.47;102923.19;5059879;28;45393;-58
2021/12/16 04:10:39;;;;;;;;;46.75;41.00;;;;;10.38;71.86;102920.59;5078346;27;45492;-52
2021/12/16 04:13:07;;;;;;;;;47.00;41.75;;;;;10.48;72.26;102935.50;5078588;28;45564;-58
2021/12/16 04:15:33;;;;;;;;;44.50;40.25;;;;;10.48;71.68;102931.97;5078861;28;46622;-57
2021/12/16 04:18:00;;;;;;;;;56.25;45.00;;;;;10.44;71.99;102930.28;5078529;28;45441;-57
2021/12/16 04:20:26;;;;;;;;;50.75;42.25;;;;;10.43;71.65;102926.72;5078538;28;45354;-57
2021/12/16 04:22:52;;;;;;;;;50.00;40.00;;;;;10.45;72.24;102930.25;5083022;27;45508;-57
2021/12/16 04:25:27;;;;;;;;;44.50;38.75;;;;;10.49;72.21;102933.72;5078287;28;46067;-58
2021/12/16 04:27:57;;;;;;;;;41.50;38.50;;;;;10.50;71.84;102928.34;5078033;28;45482;-57
2021/12/16 04:30:25;;;;;;;;;53.75;39.75;;;;;10.48;72.14;102922.19;5027801;28;45437;-58
2021/12/16 04:32:52;;;;;;;;;46.25;40.75;;;;;10.54;71.86;102931.84;5078547;28;45433;-56
2021/12/16 04:35:18;;;;;;;;;43.75;39.50;;;;;10.58;71.62;102939.75;5075420;28;45539;-58
2021/12/16 04:37:44;;;;;;;;;53.75;39.00;;;;;10.58;71.81;102934.44;5077932;27;45347;-57
2021/12/16 04:40:12;;;;;;;;;39.75;34.50;;;;;10.58;71.24;102934.44;5060052;28;45360;-57
2021/12/16 04:42:39;;;;;;;;;47.75;39.50;;;;;10.62;71.39;102946.75;5056305;28;45470;-56
2021/12/16 04:45:07;;;;;;;;;41.50;37.25;;;;;10.59;70.87;102938.84;5059461;28;45582;-57
2021/12/16 04:47:33;;;;;;;;;44.00;38.75;;;;;10.58;71.80;102939.75;5077935;28;45496;-59
2021/12/16 04:49:59;;;;;;;;;47.75;39.75;;;;;10.61;71.74;102945.00;5059831;28;45327;-56
2021/12/16 04:52:25;;;;;;;;;45.25;40.00;;;;;10.64;71.44;102942.28;5066783;28;45288;-56
2021/12/16 04:54:50;;;;;;;;;44.25;37.25;;;;;10.64;71.41;102936.09;5072289;28;46043;-58
2021/12/16 04:57:16;;;;;;;;;40.50;33.25;;;;;10.70;70.63;102943.09;5058864;28;45428;-56
2021/12/16 04:59:43;;;;;;;;;47.75;37.75;;;;;10.69;71.21;102936.00;5078403;28;45421;-57
2021/12/16 05:02:17;;;;;;;;;41.75;36.25;;;;;10.76;70.30;102945.63;5059442;28;45747;-57
2021/12/16 05:04:43;;;;;;;;;35.25;33.25;;;;;10.78;70.58;102951.78;5078842;27;45483;-59
2021/12/16 05:07:10;;;;;;;;;45.25;40.00;;;;;10.80;70.40;102947.31;5077668;28;45473;-57
2021/12/16 05:12:13;;;;;;;;;49.25;38.25;;;;;10.71;70.82;102944.84;5078140;28;45419;-57
2021/12/16 05:14:40;;;;;;;;;50.25;39.50;;;;;10.73;71.29;102953.66;5077701;27;46110;-56
2021/12/16 05:17:11;;;;;;;;;56.50;42.50;;;;;10.74;70.99;102956.28;5077849;28;45407;-57
2021/12/16 05:19:40;;;;;;;;;45.00;40.00;;;;;10.73;71.03;102956.34;5077419;28;45271;-58
2021/12/16 05:24:51;;;;;;;;;57.25;47.25;;;;;10.79;70.74;102954.41;5077096;28;45229;-55
2021/12/16 05:27:17;;;;;;;;;61.00;49.00;;;;;10.79;71.17;102953.53;5077054;28;45307;-56
2021/12/16 05:29:43;;;;;;;;;63.50;50.75;;;;;10.82;70.91;102964.16;5055760;28;45520;-57
2021/12/16 05:32:08;;;;;;;;;61.00;48.25;;;;;10.84;71.34;102971.19;5074597;28;45483;-56
2021/12/16 05:34:34;;;;;;;;;58.00;45.75;;;;;10.81;71.15;102962.41;5085756;27;45395;-57
2021/12/16 05:37:02;;;;;;;;;62.75;47.50;;;;;10.85;70.94;102969.41;5076741;28;45491;-56
2021/12/16 05:39:27;;;;;;;;;64.75;46.25;;;;;10.84;70.90;102960.53;5084772;27;45410;-58
2021/12/16 05:41:53;;;;;;;;;51.00;43.25;;;;;10.84;71.47;102972.97;5078157;27;45580;-54
2021/12/16 05:44:18;;;;;;;;;57.50;46.25;;;;;10.84;71.36;102967.66;5077266;28;45406;-58
2021/12/16 05:46:44;;;;;;;;;54.25;44.00;;;;;10.86;71.14;102979.16;5077290;28;45343;-56
2021/12/16 05:49:13;;;;;;;;;51.00;40.50;;;;;10.85;71.00;102985.38;5058485;28;45455;-57
2021/12/16 05:51:42;;;;;;;;;57.25;43.50;;;;;10.84;71.05;102978.31;5077355;28;45539;-59
2021/12/16 05:54:08;;;;;;;;;47.25;39.50;;;;;10.77;71.17;102968.66;5076165;28;46322;-57
2021/12/16 05:56:36;;;;;;;;;46.00;41.00;;;;;10.78;71.06;102983.72;5064334;27;45426;-59
2021/12/16 05:59:03;;;;;;;;;48.25;41.50;;;;;10.78;71.24;102981.06;5097839;27;45445;-58
2021/12/16 06:01:33;;;;;;;;;45.25;35.00;;;;;10.82;70.88;102981.00;5071080;28;45541;-57
2021/12/16 06:04:00;;;;;;;;;45.75;40.00;;;;;10.77;71.41;102979.31;5076276;28;45269;-57
2021/12/16 06:06:27;;;;;;;;;41.75;37.00;;;;;10.80;70.60;102982.78;5057625;28;45708;-57
2021/12/16 06:08:54;;;;;;;;;42.00;37.25;;;;;10.76;71.67;102983.75;5077563;27;45552;-58
2021/12/16 06:11:24;;;;;;;;;54.00;39.50;;;;;10.77;71.54;102997.94;5077557;27;45770;-59
2021/12/16 06:14:04;;;;;;;;;36.50;36.00;;;;;10.76;71.04;102997.06;5077140;28;46325;-58
2021/12/16 06:27:31;;;;;;;;;41.50;35.25;;;;;10.81;71.54;102999.66;5081450;27;45465;-58
2021/12/16 06:29:56;;;;;;;;;44.00;39.75;;;;;10.81;71.16;102986.34;5062220;28;45492;-60
2021/12/16 06:32:22;;;;;;;;;43.25;36.25;;;;;10.79;71.76;102974.84;5073274;28;45349;-59
2021/12/16 06:34:48;;;;;;;;;41.25;36.00;;;;;10.83;71.24;102993.41;5058007;28;47019;-57
2021/12/16 06:37:14;;;;;;;;;51.75;42.75;;;;;10.81;70.85;102978.38;5076084;28;45335;-58
2021/12/16 06:39:40;;;;;;;;;34.75;33.00;;;;;10.89;70.68;103005.69;5072897;27;45414;-60
2021/12/16 06:42:07;;;;;;;;;45.75;36.25;;;;;10.91;71.29;102990.56;5074478;28;45717;-59
2021/12/16 06:44:54;;;;;;;;;44.75;36.75;;;;;10.93;70.80;102994.06;5071682;27;46089;-59
2021/12/16 06:47:26;;;;;;;;;49.50;40.00;;;;;10.96;70.43;102986.06;5066892;28;45845;-59
2021/12/16 06:49:53;;;;;;;;;34.25;34.00;;;;;10.96;70.40;102993.16;5073572;28;45736;-57
2021/12/16 06:52:25;;;;;;;;;42.00;39.00;;;;;10.95;71.03;102994.06;5048057;28;45501;-59
2021/12/16 07:00:11;;;;;;;;;39.25;35.50;;;;;10.96;70.50;103004.69;5074886;28;45981;-60
2021/12/16 07:02:55;;;;;;;;;44.50;38.25;;;;;11.04;70.29;103004.53;5075556;28;45495;-58
2021/12/16 07:05:24;;;;;;;;;31.75;30.00;;;;;11.00;70.46;103011.69;5075875;28;45486;-60
2021/12/16 07:07:50;;;;;;;;;46.75;37.00;;;;;11.00;70.34;103002.84;5040826;28;45426;-59
2021/12/16 07:10:18;;;;;;;;;41.00;37.75;;;;;11.02;70.16;103009.88;5076092;28;45439;-57
2021/12/16 07:12:48;;;;;;;;;34.25;31.25;;;;;11.06;70.28;103022.22;5074658;28;46989;-57
2021/12/16 07:15:20;;;;;;;;;41.75;38.75;;;;;11.02;70.32;103009.88;5065579;28;46291;-58
2021/12/16 07:17:46;;;;;;;;;34.50;31.00;;;;;11.10;69.93;103015.06;5057687;28;45235;-59
2021/12/16 07:20:14;;;;;;;;;48.50;39.25;;;;;11.05;70.44;103008.94;5053648;28;45512;-60
2021/12/16 07:22:40;;;;;;;;;44.50;36.25;;;;;11.08;69.96;103014.22;5055326;27;45444;-59
2021/12/16 07:25:07;;;;;;;;;48.50;38.50;;;;;11.10;70.41;103018.63;5068766;28;45335;-59
2021/12/16 07:27:35;;;;;;;;;36.75;31.75;;;;;11.07;70.16;103008.03;5074988;28;45824;-56
2021/12/16 07:30:05;;;;;;;;;40.75;37.75;;;;;11.12;70.21;103014.13;5059803;28;45525;-58
2021/12/16 07:32:30;;;;;;;;;37.75;35.00;;;;;11.11;69.84;103019.50;5058676;28;45312;-59
2021/12/16 07:34:55;;;;;;;;;44.75;38.25;;;;;11.07;69.82;103008.03;5050043;28;45626;-58
2021/12/16 07:37:21;;;;;;;;;46.50;37.50;;;;;11.18;69.98;103023.78;5063933;27;45501;-56
2021/12/16 07:39:49;;;;;;;;;51.25;40.00;;;;;11.19;69.87;103018.41;5065837;27;45446;-59
2021/12/16 07:42:23;;;;;;;;;41.50;35.00;;;;;11.22;69.73;103025.50;5067316;27;45584;-60
2021/12/16 07:44:48;;;;;;;;;40.00;36.75;;;;;11.22;70.00;103021.03;5063617;27;46172;-60
2021/12/16 07:47:14;;;;;;;;;33.75;32.50;;;;;11.15;69.42;103011.41;5071597;27;45495;-56
2021/12/16 07:49:41;;;;;;;;;41.75;37.75;;;;;11.21;69.39;103019.28;5058567;28;45456;-59
2021/12/16 07:52:14;;;;;;;;;50.75;39.75;;;;;11.26;69.73;103031.63;5057386;28;45326;-57
2021/12/16 07:54:40;;;;;;;;;39.00;34.50;;;;;11.20;69.68;103020.19;5062720;27;45382;-59
2021/12/16 07:57:06;;;;;;;;;40.00;35.25;;;;;11.25;69.29;103032.53;5062702;27;45466;-58
2021/12/16 07:59:33;;;;;;;;;30.00;25.00;;;;;11.22;69.82;103028.16;5059193;28;45461;-58
2021/12/16 08:01:59;;;;;;;;;45.75;37.25;;;;;11.26;69.81;103040.50;5050973;28;45454;-58
2021/12/16 08:04:30;;;;;;;;;40.75;37.00;;;;;11.21;69.49;103026.41;5040351;28;48062;-59
2021/12/16 08:07:03;;;;;;;;;50.00;38.25;;;;;11.21;69.71;103029.06;5065609;27;45619;-58
2021/12/16 08:09:30;;;;;;;;;41.50;38.00;;;;;11.26;69.50;103034.28;5070229;27;45590;-60
2021/12/16 08:11:56;;;;;;;;;42.75;37.00;;;;;11.30;69.94;103046.63;5043899;27;45731;-60
2021/12/16 08:14:21;;;;;;;;;48.25;39.25;;;;;11.30;69.32;103046.63;5069969;27;46371;-59
2021/12/16 08:16:47;;;;;;;;;51.00;38.25;;;;;11.33;69.85;103051.88;5067270;28;45560;-58
2021/12/16 08:19:13;;;;;;;;;8.00;0.00;;;;;11.29;69.86;103050.19;5037932;28;45419;-55
2021/12/16 08:21:39;;;;;;;;;47.00;40.25;;;;;11.34;69.60;103048.34;5075713;27;45411;-58
2021/12/16 08:24:08;;;;;;;;;44.25;40.00;;;;;11.36;69.59;103051.84;5057253;28;46281;-58
2021/12/16 08:26:37;;;;;;;;;49.50;37.75;;;;;11.37;69.90;103046.47;5056760;28;45358;-60
2021/12/16 08:29:03;;;;;;;;;29.00;28.00;;;;;11.37;69.11;103054.47;5055715;27;45500;-59
2021/12/16 08:31:29;;;;;;;;;39.50;37.00;;;;;11.36;69.01;103055.38;5058352;28;45637;-55
2021/12/16 08:33:58;;;;;;;;;39.00;35.25;;;;;11.38;69.39;103058.00;5063724;27;45516;-57
2021/12/16 08:36:25;;;;;;;;;45.75;38.50;;;;;11.37;68.93;103053.59;5060764;27;46120;-59
2021/12/16 08:38:51;;;;;;;;;33.50;32.75;;;;;11.28;69.37;103049.31;5064108;27;45326;-59
2021/12/16 08:41:24;;;;;;;;;50.50;40.25;;;;;11.33;69.70;103059.88;5049988;28;45422;-59
2021/12/16 08:43:50;;;;;;;;;31.00;31.00;;;;;11.32;69.78;103050.13;5074202;27;45490;-60
2021/12/16 08:46:19;;;;;;;;;43.00;37.50;;;;;11.41;69.28;103069.47;5057743;28;45457;-59
2021/12/16 08:48:46;;;;;;;;;41.50;35.00;;;;;11.43;69.38;103048.13;5059897;28;45554;-60
2021/12/16 08:51:15;;;;;;;;;42.75;37.00;;;;;11.47;68.96;103072.03;5059875;27;45589;-60
2021/12/16 08:53:40;;;;;;;;;38.75;36.25;;;;;11.48;69.18;103075.59;5060378;27;45505;-58
2021/12/16 08:56:08;;;;;;;;;41.75;36.00;;;;;11.44;69.57;103065.88;5039626;28;45284;-60
2021/12/16 08:58:34;;;;;;;;;42.25;37.00;;;;;11.52;69.02;103079.94;5058023;27;46021;-59
2021/12/16 09:01:09;;;;;;;;;42.75;37.00;;;;;11.49;68.97;103066.69;5040033;28;45550;-58
2021/12/16 09:03:35;;;;;;;;;39.50;34.00;;;;;11.58;68.57;103074.47;5060844;27;45407;-56
2021/12/16 09:06:02;;;;;;;;;41.50;37.00;;;;;11.57;68.79;103072.69;5059242;28;45458;-60
2021/12/16 09:08:28;;;;;;;;;47.50;39.25;;;;;11.59;68.95;103083.31;5076631;28;45291;-59
2021/12/16 09:10:54;;;;;;;;;48.75;37.75;;;;;11.59;68.77;103070.91;5064697;28;45631;-59
2021/12/16 09:13:19;;;;;;;;;31.25;28.00;;;;;11.57;68.11;103070.03;5071012;28;46147;-57
2021/12/16 09:15:50;;;;;;;;;45.75;39.50;;;;;11.66;68.51;103085.84;5062023;27;45391;-56
2021/12/16 09:18:19;;;;;;;;;47.75;39.00;;;;;11.67;68.46;103074.28;5073984;27;45475;-58
2021/12/16 09:20:46;;;;;;;;;37.00;31.75;;;;;11.68;68.21;103076.03;5078575;28;45235;-57
2021/12/16 09:23:12;;;;;;;;;44.75;36.75;;;;;11.69;68.21;103080.44;5059407;27;45620;-57
2021/12/16 09:25:40;;;;;;;;;45.00;38.50;;;;;11.70;68.24;103087.53;5061176;27;45390;-59
2021/12/16 09:28:06;;;;;;;;;47.50;42.00;;;;;11.71;67.79;103096.41;5060345;27;45568;-60
2021/12/16 09:30:34;;;;;;;;;44.75;39.25;;;;;11.73;68.21;103100.81;5052835;28;45721;-59
2021/12/16 09:33:03;;;;;;;;;36.50;33.25;;;;;11.73;67.64;103100.81;5066133;28;46347;-59
2021/12/16 09:35:38;;;;;;;;;43.25;36.25;;;;;11.70;67.82;103090.19;5071638;27;45524;-59
2021/12/16 09:38:06;;;;;;;;;38.00;33.00;;;;;11.70;68.10;103090.19;5068079;28;45456;-60
2021/12/16 09:40:35;;;;;;;;;44.00;37.00;;;;;11.77;68.22;103105.16;5060715;28;45357;-59
2021/12/16 09:43:03;;;;;;;;;44.50;36.25;;;;;11.77;67.58;103097.16;5048255;28;48025;-60
2021/12/16 09:45:30;;;;;;;;;41.75;35.75;;;;;11.75;67.58;103099.00;5058793;28;45529;-60
2021/12/16 09:47:56;;;;;;;;;35.75;32.75;;;;;11.80;67.59;103110.47;5075885;28;45402;-58
2021/12/16 09:50:25;;;;;;;;;40.50;35.50;;;;;11.77;67.91;103097.16;5075229;28;45276;-59
2021/12/16 09:52:51;;;;;;;;;42.25;35.25;;;;;11.87;67.31;103113.88;5076869;28;46003;-59
2021/12/16 09:55:18;;;;;;;;;41.00;38.00;;;;;11.80;67.43;103102.47;5077380;28;45397;-59
2021/12/16 09:57:44;;;;;;;;;35.75;30.25;;;;;11.91;67.28;103125.38;5054567;28;45454;-57
2021/12/16 10:00:12;;;;;;;;;28.00;23.00;;;;;11.92;67.01;103121.78;5038842;28;45431;-59
2021/12/16 10:02:38;;;;;;;;;48.75;38.25;;;;;11.91;67.01;103117.38;5057265;28;46008;-58
2021/12/16 10:05:06;;;;;;;;;37.50;34.00;;;;;11.86;67.08;103114.81;5076844;28;45406;-59
2021/12/16 10:07:34;;;;;;;;;46.50;36.50;;;;;11.84;67.38;103102.38;5076714;28;45343;-59
2021/12/16 10:10:04;;;;;;;;;29.75;26.25;;;;;11.91;66.83;103115.56;5077428;28;45390;-58
2021/12/16 10:12:34;;;;;;;;;37.50;33.25;;;;;11.91;66.56;103110.25;5076877;27;45422;-60
2021/12/16 10:15:06;;;;;;;;;34.50;33.50;;;;;11.93;66.93;103127.06;5057007;28;45452;-60
2021/12/16 10:17:38;;;;;;;;;37.25;35.50;;;;;11.97;66.89;103119.88;5039363;28;45340;-59
2021/12/16 10:20:26;;;;;;;;;50.25;39.50;;;;;12.01;66.91;103118.94;5039197;28;45335;-59
2021/12/16 10:23:10;;;;;;;;;35.25;31.75;;;;;12.04;66.83;103118.84;5038271;28;45507;-61
2021/12/16 10:26:04;;;;;;;;;40.75;36.75;;;;;12.07;66.48;103122.31;5056447;28;45347;-59
2021/12/16 10:28:32;;;;;;;;;37.25;34.25;;;;;12.08;66.52;103123.19;5053002;28;45526;-59
2021/12/16 10:31:12;;;;;;;;;40.00;32.50;;;;;12.13;66.44;103126.66;5057823;28;45406;-59
2021/12/16 10:33:41;;;;;;;;;36.75;36.00;;;;;12.09;66.40;103115.16;5056442;28;46155;-59
2021/12/16 10:36:23;;;;;;;;;38.00;36.25;;;;;12.18;66.00;103122.09;5056120;28;45430;-59
2021/12/16 10:39:01;;;;;;;;;41.00;36.25;;;;;12.22;65.83;103123.75;5061166;28;45790;-59
2021/12/16 10:41:34;;;;;;;;;39.00;36.00;;;;;12.21;66.07;103124.69;5048989;28;45528;-59
2021/12/16 10:44:07;;;;;;;;;35.25;33.50;;;;;12.23;65.45;103116.63;5076082;28;45187;-63
2021/12/16 10:46:38;;;;;;;;;39.75;30.75;;;;;12.22;65.97;103122.88;5054401;28;45272;-59
2021/12/16 10:49:08;;;;;;;;;45.25;38.50;;;;;12.22;65.70;103131.78;5056384;28;45375;-60
2021/12/16 10:51:45;;;;;;;;;46.50;35.50;;;;;12.23;65.32;103128.19;5056361;28;45296;-60
2021/12/16 10:54:17;;;;;;;;;37.00;30.25;;;;;12.22;65.27;103118.44;5045997;28;46254;-59
2021/12/16 10:57:00;;;;;;;;;40.25;36.25;;;;;12.23;65.06;103117.50;5075939;28;45398;-59
2021/12/16 10:59:34;;;;;;;;;45.00;36.25;;;;;12.15;65.24;103113.28;5076137;28;45335;-60
2021/12/16 11:02:03;;;;;;;;;45.50;40.75;;;;;12.23;65.54;103119.31;5058174;28;45430;-60
2021/12/16 11:04:37;;;;;;;;;39.00;36.00;;;;;12.26;65.29;103108.59;5075376;28;45472;-62
2021/12/16 11:07:10;;;;;;;;;41.75;38.25;;;;;12.28;65.74;103109.44;5076264;28;45374;-59
2021/12/16 11:09:39;;;;;;;;;43.75;33.75;;;;;12.28;64.93;103114.75;5071547;28;45540;-59
2021/12/16 11:12:13;;;;;;;;;43.00;36.50;;;;;12.30;65.23;103118.25;5058103;28;46869;-59
2021/12/16 11:14:44;;;;;;;;;48.00;39.50;;;;;12.31;65.19;103118.22;5056115;28;45490;-59
2021/12/16 11:17:12;;;;;;;;;40.75;36.50;;;;;12.34;65.33;103115.47;5056902;28;45465;-58
2021/12/16 11:19:45;;;;;;;;;44.75;39.75;;;;;12.37;65.43;103126.09;5068553;28;45388;-60
2021/12/16 11:22:14;;;;;;;;;45.75;40.50;;;;;12.28;64.65;103110.31;5043735;28;45462;-59
2021/12/16 11:24:40;;;;;;;;;39.00;36.50;;;;;12.35;65.62;103119.91;5046329;28;47280;-59
2021/12/16 11:27:33;;;;;;;;;39.50;36.25;;;;;12.35;65.46;103116.34;5067944;27;45236;-60
2021/12/16 11:30:18;;;;;;;;;46.50;38.50;;;;;12.35;65.45;103114.56;5075344;27;45304;-59
2021/12/16 11:32:47;;;;;;;;;51.75;42.25;;;;;12.36;65.18;103102.97;5071198;27;45519;-61
2021/12/16 11:35:30;;;;;;;;;42.75;36.50;;;;;12.50;65.75;103126.69;5050609;28;45528;-60
2021/12/16 11:38:02;;;;;;;;;46.50;38.75;;;;;12.48;64.93;103117.81;5058064;28;45269;-58
2021/12/16 11:40:27;;;;;;;;;46.25;39.00;;;;;12.51;65.03;103112.44;5075988;28;45277;-59
2021/12/16 11:43:04;;;;;;;;;36.00;30.75;;;;;12.54;65.30;103109.69;5076129;28;45533;-59
2021/12/16 11:45:36;;;;;;;;;50.00;38.50;;;;;12.41;64.78;103094.88;5067107;27;46137;-59
2021/12/16 11:48:03;;;;;;;;;45.75;39.00;;;;;12.51;64.07;103096.41;5059463;27;45468;-59
2021/12/16 11:50:40;;;;;;;;;39.25;36.25;;;;;12.55;65.27;103107.88;5062185;28;45379;-59
2021/12/16 11:53:10;;;;;;;;;47.25;41.00;;;;;12.55;64.89;103099.88;5066722;28;45347;-60
2021/12/16 11:55:37;;;;;;;;;36.50;34.50;;;;;12.53;65.18;103099.03;5052802;28;48223;-59
2021/12/16 11:58:06;;;;;;;;;49.00;39.25;;;;;12.52;64.97;103097.28;5066047;27;45562;-60
2021/12/16 12:00:36;;;;;;;;;36.50;34.50;;;;;12.63;65.31;103105.88;5055411;28;45339;-59
2021/12/16 12:03:07;;;;;;;;;60.75;48.00;;;;;12.67;64.92;103110.25;5056189;27;45534;-62
2021/12/16 12:05:47;;;;;;;;;53.50;41.50;;;;;12.64;64.87;103092.53;5062829;28;46050;-61
2021/12/16 12:08:16;;;;;;;;;45.50;40.00;;;;;12.70;64.79;103102.16;5065028;27;45378;-59
2021/12/16 12:10:53;;;;;;;;;52.75;41.00;;;;;12.74;64.23;103105.63;5053855;28;45460;-59
2021/12/16 12:13:20;;;;;;;;;55.75;44.25;;;;;12.73;64.37;103096.75;5056717;27;45731;-59
2021/12/16 12:16:08;;;;;;;;;40.00;38.00;;;;;12.75;65.07;103096.69;5059356;27;46308;-61
2021/12/16 12:19:03;;;;;;;;;47.00;38.25;;;;;12.76;64.12;103103.78;5078457;28;45312;-60
2021/12/16 12:21:37;;;;;;;;;53.00;42.50;;;;;12.77;64.49;103103.78;5074325;27;45556;-59
2021/12/16 12:24:12;;;;;;;;;45.25;36.50;;;;;12.73;64.19;103099.41;5072649;27;45425;-59
2021/12/16 12:27:09;;;;;;;;;50.25;36.75;;;;;12.74;63.93;103093.16;5075606;27;45915;-60
2021/12/16 12:29:37;;;;;;;;;34.50;33.00;;;;;12.76;63.55;103091.34;5057480;27;45403;-58
2021/12/16 12:32:11;;;;;;;;;27.50;27.25;;;;;12.80;64.08;103089.47;5076073;27;45550;-60
2021/12/16 12:34:39;;;;;;;;;36.75;31.25;;;;;12.81;63.72;103089.44;5064919;28;45260;-60
2021/12/16 12:37:09;;;;;;;;;55.25;43.75;;;;;12.83;63.79;103087.59;5076504;27;46287;-61
2021/12/16 12:39:48;;;;;;;;;32.75;28.25;;;;;12.83;62.72;103082.25;5067772;27;45314;-61
2021/12/16 12:42:15;;;;;;;;;28.50;24.75;;;;;12.83;63.48;103084.91;5057857;28;45411;-59
2021/12/16 12:44:42;;;;;;;;;32.25;28.75;;;;;12.80;63.27;103086.81;5067779;27;45470;-59
2021/12/16 12:47:12;;;;;;;;;28.33;25.33;;;;;12.80;63.56;103090.34;5055242;28;47305;-60
2021/12/16 12:49:38;;;;;;;;;31.00;30.67;;;;;12.90;62.98;103089.19;5062998;27;45390;-60
2021/12/16 12:52:09;;;;;;;;;32.00;31.50;;;;;12.92;63.16;103082.03;5057310;28;45493;-59
2021/12/16 12:54:36;;;;;;;;;31.75;28.50;;;;;12.90;63.40;103075.84;5039671;28;45416;-61
2021/12/16 12:57:20;;;;;;;;;32.75;28.00;;;;;12.87;63.22;103080.38;5057726;28;45315;-60
2021/12/16 12:59:46;;;;;;;;;35.00;29.75;;;;;12.84;62.94;103073.31;5057611;28;45208;-62
2021/12/16 13:02:16;;;;;;;;;33.75;26.25;;;;;12.83;63.12;103070.69;5057693;28;45278;-60
2021/12/16 13:04:47;;;;;;;;;39.50;35.00;;;;;12.80;63.70;103077.00;5058129;28;45534;-59
2021/12/16 13:07:13;;;;;;;;;37.25;33.00;;;;;12.81;62.27;103073.41;5057749;28;46424;-62
2021/12/16 13:09:41;;;;;;;;;31.00;29.00;;;;;12.77;63.45;103066.41;5057757;28;45467;-60
2021/12/16 13:12:42;;;;;;;;;31.50;27.50;;;;;12.84;63.91;103070.66;5040065;28;45322;-59
2021/12/16 13:15:20;;;;;;;;;37.00;32.00;;;;;12.86;63.36;103055.44;5057513;28;45533;-59
2021/12/16 13:26:21;;;;;;;;;34.75;29.00;;;;;12.86;62.46;103055.44;5057822;28;45424;-62
2021/12/16 13:29:41;;;;;;;;;29.25;28.75;;;;;12.90;62.39;103057.16;5057059;28;45354;-59
2021/12/16 13:32:20;;;;;;;;;39.75;29.25;;;;;12.82;62.39;103053.78;5045452;28;45394;-58
2021/12/16 13:38:05;;;;;;;;;34.33;32.67;;;;;12.88;62.71;103048.28;5045847;28;45340;-58
2021/12/16 13:40:35;;;;;;;;;28.00;26.33;;;;;12.87;61.92;103045.66;5077695;28;46251;-60
2021/12/16 13:43:30;;;;;;;;;30.67;25.67;;;;;12.87;62.31;103051.00;5062276;28;45415;-60
2021/12/16 13:46:24;;;;;;;;;32.75;31.75;;;;;12.87;61.63;103046.53;5028609;28;45400;-59
2021/12/16 14:06:12;;;;;;;;;32.33;27.00;;;;;12.83;62.21;103049.31;5064336;27;45331;-58
2021/12/16 14:08:44;;;;;;;;;29.25;26.00;;;;;12.83;62.33;103060.88;5059683;27;45395;-60
2021/12/16 14:14:55;;;;;;;;;26.00;24.25;;;;;12.77;62.39;103053.06;5057064;27;45429;-57
2021/12/16 14:17:57;;;;;;;;;41.25;34.25;;;;;12.78;62.79;103051.25;5073961;27;45346;-57
2021/12/16 14:23:30;;;;;;;;;31.75;28.75;;;;;12.72;62.24;103046.94;5075838;27;45481;-56